Time;durP1;ratioP1;P1;durP2;ratioP2;P2;SDS_P1;SDS_P2;PMS_P1;PMS_P2;Temp;Humidity;BMP_temperature;BMP_pressure;BME280_temperature;BME280_humidity;BME280_pressure;Samples;Min_cycle;Max_cycle;Signal;HPM_P1;HPM_P2
2023/08/20 16:18:18;;;;;;;2.20;1.98;;;35.00;44.20;;;;;;5114719;28;20044;-71
2023/08/20 16:20:44;;;;;;;2.08;1.98;;;34.70;44.40;;;;;;5112508;28;20047;-70
2023/08/20 16:23:09;;;;;;;2.53;2.30;;;34.50;44.70;;;;;;5107699;28;20024;-72
2023/08/20 16:25:37;;;;;;;2.28;2.08;;;34.40;44.90;;;;;;5107902;28;20476;-71
2023/08/20 16:28:03;;;;;;;3.08;2.28;;;34.20;45.00;;;;;;5106180;28;20083;-71
2023/08/20 16:30:28;;;;;;;3.83;2.20;;;34.10;45.30;;;;;;5107971;28;20040;-70
2023/08/20 16:32:55;;;;;;;2.28;2.08;;;33.90;45.50;;;;;;5109902;28;20016;-74
2023/08/20 16:35:22;;;;;;;3.25;2.13;;;33.80;45.90;;;;;;5107172;27;20381;-69
2023/08/20 16:37:47;;;;;;;3.30;2.20;;;33.60;46.80;;;;;;5102949;28;20028;-71
2023/08/20 16:40:20;;;;;;;2.10;1.90;;;33.50;46.50;;;;;;5107063;28;20023;-72
2023/08/20 16:42:45;;;;;;;2.20;2.00;;;33.30;46.60;;;;;;5108025;28;20491;-72
2023/08/20 16:45:11;;;;;;;2.42;2.10;;;33.10;46.80;;;;;;5105407;28;20253;-73
2023/08/20 16:47:37;;;;;;;3.00;2.10;;;33.00;47.10;;;;;;5105519;28;20031;-73
2023/08/20 16:50:03;;;;;;;2.13;1.95;;;32.80;47.20;;;;;;5107587;27;20032;-73
2023/08/20 16:52:28;;;;;;;2.58;2.10;;;32.70;47.50;;;;;;5107880;28;20030;-72
2023/08/20 16:54:54;;;;;;;2.50;2.30;;;32.60;47.80;;;;;;5106916;28;20015;-71
2023/08/20 16:57:20;;;;;;;2.30;2.10;;;32.50;48.10;;;;;;5107148;28;20027;-72
2023/08/20 16:59:46;;;;;;;3.88;2.35;;;32.30;48.30;;;;;;5109207;28;20096;-75
2023/08/20 17:02:11;;;;;;;2.38;2.17;;;32.10;48.50;;;;;;5108058;28;20107;-75
2023/08/20 17:04:37;;;;;;;3.10;2.30;;;32.00;48.70;;;;;;5108760;28;20055;-72
2023/08/20 17:07:03;;;;;;;4.78;2.38;;;31.90;49.00;;;;;;5110156;28;20110;-73
2023/08/20 17:09:29;;;;;;;3.03;2.20;;;31.70;49.70;;;;;;5107475;28;20035;-81
2023/08/20 17:11:54;;;;;;;2.30;2.10;;;31.60;49.20;;;;;;5108008;28;20031;-77
2023/08/20 17:14:20;;;;;;;2.30;2.10;;;31.50;49.40;;;;;;5110589;28;20038;-75
2023/08/20 17:16:46;;;;;;;2.95;2.40;;;31.50;49.60;;;;;;5111425;28;20201;-77
2023/08/20 17:19:11;;;;;;;2.25;2.05;;;31.40;49.80;;;;;;5113991;28;20492;-81
2023/08/20 17:21:37;;;;;;;4.05;2.40;;;31.30;49.90;;;;;;5107676;28;20167;-73
2023/08/20 17:24:03;;;;;;;3.03;2.20;;;31.30;50.10;;;;;;5109306;27;20058;-73
2023/08/20 17:26:29;;;;;;;3.78;3.35;;;31.20;50.80;;;;;;5108656;28;20114;-81
2023/08/20 17:28:54;;;;;;;2.50;2.30;;;31.10;50.40;;;;;;5111912;27;20103;-80
2023/08/20 17:31:20;;;;;;;3.03;2.38;;;31.00;50.40;;;;;;5110968;28;20466;-74
2023/08/20 17:33:46;;;;;;;3.08;2.45;;;31.00;50.40;;;;;;5106095;28;20026;-77
2023/08/20 17:36:11;;;;;;;3.35;2.40;;;31.00;50.60;;;;;;5105505;28;20521;-79
2023/08/20 17:38:37;;;;;;;4.78;2.30;;;31.00;50.60;;;;;;5107704;28;20057;-81
2023/08/20 17:41:04;;;;;;;2.13;2.00;;;31.00;50.60;;;;;;5109020;27;20177;-84
2023/08/20 17:43:30;;;;;;;2.63;2.20;;;31.00;50.70;;;;;;5108261;28;20031;-74
2023/08/20 17:45:56;;;;;;;3.33;2.40;;;31.00;50.70;;;;;;5108901;28;20075;-74
2023/08/20 17:48:21;;;;;;;2.30;2.00;;;31.00;50.90;;;;;;5113309;28;20035;-75
2023/08/20 17:50:47;;;;;;;2.38;2.17;;;31.00;51.00;;;;;;5111328;28;20035;-74
2023/08/20 17:53:13;;;;;;;4.95;2.17;;;31.00;51.20;;;;;;5114156;28;20084;-74
2023/08/20 17:55:39;;;;;;;2.50;2.30;;;31.00;51.30;;;;;;5102038;28;20106;-73
2023/08/20 17:58:05;;;;;;;2.38;2.20;;;30.90;51.30;;;;;;5105438;28;20028;-72
2023/08/20 18:00:31;;;;;;;2.60;2.40;;;30.90;51.50;;;;;;5109659;28;20015;-73
2023/08/20 18:02:57;;;;;;;2.38;2.15;;;30.90;51.60;;;;;;5108415;28;20036;-71
2023/08/20 18:05:23;;;;;;;3.05;2.05;;;30.90;51.80;;;;;;5104845;28;20135;-71
2023/08/20 18:07:48;;;;;;;2.30;2.10;;;30.80;52.00;;;;;;5105320;28;20470;-70
2023/08/20 18:10:14;;;;;;;2.38;2.17;;;30.80;52.10;;;;;;5103743;28;20111;-71
2023/08/20 18:12:41;;;;;;;2.30;2.10;;;30.80;52.20;;;;;;5101168;28;20062;-71
2023/08/20 18:15:07;;;;;;;3.75;2.10;;;30.80;52.40;;;;;;5103617;28;20020;-73
2023/08/20 18:17:32;;;;;;;5.03;2.25;;;30.80;52.50;;;;;;5109907;28;21634;-72
2023/08/20 18:19:58;;;;;;;3.15;2.13;;;30.70;52.60;;;;;;5111832;28;20371;-75
2023/08/20 18:22:24;;;;;;;3.50;2.20;;;30.70;52.70;;;;;;5111805;28;20027;-76
2023/08/20 18:24:50;;;;;;;2.33;2.13;;;30.70;52.80;;;;;;5106206;28;20473;-76
2023/08/20 18:27:15;;;;;;;2.63;2.05;;;30.70;52.80;;;;;;5108011;28;20031;-77
2023/08/20 18:29:41;;;;;;;2.85;2.30;;;30.70;52.80;;;;;;5113245;28;20042;-83
2023/08/20 18:32:07;;;;;;;2.30;2.10;;;30.70;52.80;;;;;;5113848;28;20054;-82
2023/08/20 18:34:33;;;;;;;4.38;2.40;;;30.70;52.90;;;;;;5108789;28;20077;-84
2023/08/20 18:36:58;;;;;;;2.65;2.42;;;30.70;53.00;;;;;;5108916;28;20035;-80
2023/08/20 18:39:25;;;;;;;3.25;2.33;;;30.60;53.10;;;;;;5106842;28;20051;-80
2023/08/20 18:41:50;;;;;;;3.33;2.28;;;30.60;53.10;;;;;;5110643;28;20028;-80
2023/08/20 18:44:16;;;;;;;5.35;2.08;;;30.60;53.20;;;;;;5113085;28;20046;-82
2023/08/20 18:46:41;;;;;;;2.72;2.38;;;30.60;53.30;;;;;;5112425;28;20015;-82
2023/08/20 18:49:07;;;;;;;2.38;2.17;;;30.60;53.50;;;;;;5111091;28;20040;-82
2023/08/20 18:51:33;;;;;;;4.13;2.38;;;30.60;53.60;;;;;;5112247;28;20036;-82
2023/08/20 18:53:58;;;;;;;2.65;2.40;;;30.50;53.70;;;;;;5112606;28;20044;-82
2023/08/20 18:56:24;;;;;;;3.55;2.33;;;30.50;53.80;;;;;;5116786;28;20019;-82
2023/08/20 18:58:50;;;;;;;2.53;2.30;;;30.40;53.80;;;;;;5116511;28;20073;-81
2023/08/20 19:01:15;;;;;;;2.70;2.50;;;30.40;54.60;;;;;;5116680;28;20040;-82
2023/08/20 19:03:41;;;;;;;2.50;2.30;;;30.40;54.00;;;;;;5116463;28;20102;-81
2023/08/20 19:06:07;;;;;;;2.40;2.20;;;30.40;54.10;;;;;;5116593;28;20103;-81
2023/08/20 19:08:33;;;;;;;3.28;2.20;;;30.40;54.20;;;;;;5116789;28;20024;-81
2023/08/20 19:11:00;;;;;;;2.13;1.92;;;30.40;54.30;;;;;;5116397;28;20043;-81
2023/08/20 19:13:26;;;;;;;3.10;2.17;;;30.30;54.30;;;;;;5116544;28;20031;-81
2023/08/20 19:15:53;;;;;;;3.15;2.08;;;30.30;54.30;;;;;;5116845;28;20027;-82
2023/08/20 19:18:18;;;;;;;2.38;2.17;;;30.30;54.40;;;;;;5116544;28;20469;-82
2023/08/20 19:20:53;;;;;;;3.22;2.28;;;30.30;54.40;;;;;;5116478;27;20040;-81
2023/08/20 19:23:20;;;;;;;2.63;2.42;;;30.30;55.10;;;;;;5116326;28;20032;-82
2023/08/20 19:25:47;;;;;;;2.47;2.28;;;30.30;54.50;;;;;;5116404;27;20035;-82
2023/08/20 19:28:13;;;;;;;3.00;2.50;;;30.20;54.50;;;;;;5116293;28;20039;-82
2023/08/20 19:30:48;;;;;;;3.00;2.38;;;30.20;54.50;;;;;;5116465;28;20067;-83
2023/08/20 19:33:14;;;;;;;2.83;2.40;;;30.10;54.60;;;;;;5115535;27;20028;-82
2023/08/20 19:35:41;;;;;;;2.55;2.35;;;30.10;54.60;;;;;;5116627;28;20035;-82
2023/08/20 19:38:07;;;;;;;2.50;2.30;;;30.10;54.60;;;;;;5116644;28;20466;-82
2023/08/20 19:40:37;;;;;;;3.95;2.15;;;30.00;54.60;;;;;;5116628;28;20037;-82
2023/08/20 19:43:03;;;;;;;2.25;2.05;;;30.00;54.70;;;;;;5115984;28;20351;-83
2023/08/20 19:45:29;;;;;;;2.40;2.20;;;30.00;54.60;;;;;;5114606;28;20051;-83
2023/08/20 19:47:55;;;;;;;2.60;2.40;;;30.00;54.60;;;;;;5115632;28;20024;-83
2023/08/20 19:50:21;;;;;;;2.42;2.22;;;30.00;54.60;;;;;;5115141;28;20127;-81
2023/08/20 19:52:47;;;;;;;5.18;2.15;;;30.00;54.70;;;;;;5114422;28;20476;-80
2023/08/20 19:55:13;;;;;;;2.40;2.20;;;30.00;54.70;;;;;;5115636;28;20104;-81
2023/08/20 19:57:39;;;;;;;2.03;1.90;;;30.00;54.70;;;;;;5115934;28;20484;-83
2023/08/20 20:00:11;;;;;;;2.92;2.53;;;30.00;54.70;;;;;;5115554;28;20028;-86
2023/08/20 20:02:38;;;;;;;2.40;2.20;;;30.00;54.60;;;;;;5114189;28;20027;-83
2023/08/20 20:05:07;;;;;;;2.30;2.10;;;29.90;54.40;;;;;;5115188;28;20038;-84
2023/08/20 20:07:34;;;;;;;3.30;2.15;;;30.00;54.40;;;;;;5106606;28;20031;-85
2023/08/20 20:10:00;;;;;;;2.30;2.10;;;30.00;54.40;;;;;;5115419;28;20054;-82
2023/08/20 20:12:26;;;;;;;2.67;2.47;;;30.00;54.40;;;;;;5114179;28;20035;-82
2023/08/20 20:14:51;;;;;;;2.85;2.33;;;30.00;54.40;;;;;;5115596;28;20107;-82
2023/08/20 20:17:17;;;;;;;2.92;2.30;;;30.00;54.40;;;;;;5115537;28;20023;-83
2023/08/20 20:19:42;;;;;;;2.70;2.42;;;30.00;54.50;;;;;;5118818;27;20050;-83
2023/08/20 20:22:08;;;;;;;2.17;2.08;;;30.00;54.40;;;;;;5136535;27;20449;-83
2023/08/20 20:24:34;;;;;;;2.40;2.20;;;30.00;54.40;;;;;;5124537;27;20031;-83
2023/08/20 20:26:59;;;;;;;2.40;2.20;;;30.00;54.40;;;;;;5095697;28;20035;-83
2023/08/20 20:29:25;;;;;;;2.88;2.40;;;30.00;54.50;;;;;;5095659;28;20028;-85
2023/08/20 20:31:51;;;;;;;2.65;2.22;;;29.90;54.40;;;;;;5095204;28;20040;-85
2023/08/20 20:34:17;;;;;;;2.40;2.20;;;29.90;54.40;;;;;;5095616;28;20123;-84
2023/08/20 20:36:42;;;;;;;2.60;2.40;;;29.90;54.40;;;;;;5111356;27;20505;-84
2023/08/20 20:39:08;;;;;;;2.30;2.10;;;29.80;54.40;;;;;;5114287;28;20726;-82
2023/08/20 20:41:34;;;;;;;3.47;2.25;;;29.90;54.40;;;;;;5114883;28;20111;-82
2023/08/20 20:44:00;;;;;;;2.40;2.20;;;29.90;54.40;;;;;;5114737;28;20124;-81
2023/08/20 20:46:25;;;;;;;2.60;2.40;;;29.80;54.40;;;;;;5114195;28;20035;-81
2023/08/20 20:48:51;;;;;;;2.60;2.40;;;29.80;54.40;;;;;;5113589;28;20123;-82
2023/08/20 20:51:16;;;;;;;3.05;2.55;;;29.80;54.50;;;;;;5114406;28;20038;-82
2023/08/20 20:53:42;;;;;;;3.53;2.58;;;29.80;54.50;;;;;;5114763;28;20411;-82
2023/08/20 20:56:08;;;;;;;3.10;2.58;;;29.80;54.60;;;;;;5114316;28;20089;-82
2023/08/20 20:58:33;;;;;;;2.67;2.47;;;29.80;54.70;;;;;;5114953;28;20032;-82
2023/08/20 21:00:59;;;;;;;2.78;2.58;;;29.80;54.80;;;;;;5112852;28;20028;-82
2023/08/20 21:03:25;;;;;;;2.63;2.42;;;29.70;54.80;;;;;;5114562;28;20530;-82
2023/08/20 21:05:50;;;;;;;3.00;2.67;;;29.70;54.80;;;;;;5114889;28;20085;-82
2023/08/20 21:08:16;;;;;;;3.10;2.80;;;29.70;54.90;;;;;;5114044;28;20023;-82
2023/08/20 21:10:42;;;;;;;3.60;2.63;;;29.70;55.00;;;;;;5113001;28;20062;-82
2023/08/20 21:13:10;;;;;;;3.10;2.80;;;29.60;55.00;;;;;;5112652;28;20063;-81
2023/08/20 21:15:36;;;;;;;3.30;2.97;;;29.50;55.00;;;;;;5114016;28;20077;-84
2023/08/20 21:18:02;;;;;;;3.10;2.80;;;29.50;55.10;;;;;;5113231;28;20031;-81
2023/08/20 21:20:27;;;;;;;3.40;3.10;;;29.50;55.20;;;;;;5116114;27;20118;-82
2023/08/20 21:22:54;;;;;;;3.83;2.80;;;29.50;55.30;;;;;;5114492;28;20039;-83
2023/08/20 21:25:20;;;;;;;3.88;2.90;;;29.50;55.40;;;;;;5114737;27;20035;-83
2023/08/20 21:27:46;;;;;;;4.22;3.13;;;29.50;55.50;;;;;;5114271;28;20111;-83
2023/08/20 21:30:12;;;;;;;3.80;3.00;;;29.40;55.50;;;;;;5113778;28;20119;-82
2023/08/20 21:32:38;;;;;;;4.50;3.13;;;29.40;55.60;;;;;;5107746;28;20074;-83
2023/08/20 21:35:04;;;;;;;4.18;2.90;;;29.40;55.70;;;;;;5113911;28;20454;-82
2023/08/20 21:37:30;;;;;;;4.15;2.80;;;29.40;55.80;;;;;;5120201;27;20019;-82
2023/08/20 21:39:55;;;;;;;3.20;2.90;;;29.30;55.80;;;;;;5114169;28;20035;-82
2023/08/20 21:42:21;;;;;;;3.35;3.05;;;29.30;55.90;;;;;;5113913;28;20079;-82
2023/08/20 21:44:47;;;;;;;3.80;3.00;;;29.30;56.00;;;;;;5113936;28;20099;-82
2023/08/20 21:47:25;;;;;;;3.30;2.90;;;29.20;56.00;;;;;;5113860;28;20722;-83
2023/08/20 21:49:52;;;;;;;3.10;2.80;;;29.20;56.10;;;;;;5112622;28;20040;-83
2023/08/20 21:52:20;;;;;;;4.53;2.95;;;29.20;56.10;;;;;;5113071;28;20032;-83
2023/08/20 21:54:49;;;;;;;3.97;3.20;;;29.20;56.20;;;;;;5109108;28;20023;-83
2023/08/20 21:57:20;;;;;;;3.30;3.00;;;29.20;56.30;;;;;;5113416;28;20388;-84
2023/08/20 21:59:50;;;;;;;5.30;3.03;;;29.10;56.30;;;;;;5106736;28;20385;-83
2023/08/20 22:02:16;;;;;;;3.20;2.90;;;29.10;56.40;;;;;;5112126;28;20389;-83
2023/08/20 22:04:42;;;;;;;3.85;2.92;;;29.10;56.50;;;;;;5114096;28;20435;-83
2023/08/20 22:07:08;;;;;;;3.33;2.90;;;29.10;56.50;;;;;;5113314;28;20063;-83
2023/08/20 22:09:34;;;;;;;5.38;3.42;;;29.10;56.60;;;;;;5112628;28;20039;-83
2023/08/20 22:12:00;;;;;;;3.45;2.90;;;29.10;56.60;;;;;;5112336;28;20036;-83
2023/08/20 22:14:26;;;;;;;4.20;3.35;;;29.00;56.60;;;;;;5112003;28;20115;-84
2023/08/20 22:16:52;;;;;;;3.60;2.90;;;29.00;56.60;;;;;;5113606;28;20385;-83
2023/08/20 22:19:19;;;;;;;4.10;3.22;;;29.00;56.60;;;;;;5113219;28;20051;-83
2023/08/20 22:21:46;;;;;;;3.20;2.90;;;29.00;56.60;;;;;;5112669;28;20024;-83
2023/08/20 22:24:19;;;;;;;3.70;3.20;;;29.00;56.60;;;;;;5112671;28;20031;-83
2023/08/20 22:26:46;;;;;;;4.05;2.72;;;29.00;56.60;;;;;;5113920;28;20031;-84
2023/08/20 22:29:12;;;;;;;4.60;3.40;;;29.00;56.70;;;;;;5116451;28;20059;-83
2023/08/20 22:31:38;;;;;;;3.70;3.25;;;29.00;56.70;;;;;;5117589;28;20035;-83
2023/08/20 22:34:03;;;;;;;3.67;3.22;;;29.00;56.70;;;;;;5117147;28;20032;-83
2023/08/20 22:36:29;;;;;;;3.78;3.03;;;29.00;56.70;;;;;;5117760;28;20027;-83
2023/08/20 22:38:54;;;;;;;3.38;3.08;;;29.00;56.60;;;;;;5117337;28;20448;-83
2023/08/20 22:41:20;;;;;;;3.65;3.22;;;29.00;56.60;;;;;;5117572;28;20030;-84
2023/08/20 22:43:46;;;;;;;3.80;3.15;;;29.00;56.60;;;;;;5116575;28;20385;-83
2023/08/20 22:46:11;;;;;;;4.70;3.28;;;29.00;56.60;;;;;;5117345;28;20027;-83
2023/08/20 22:48:37;;;;;;;3.45;3.13;;;29.00;56.70;;;;;;5117489;28;20042;-83
2023/08/20 22:51:03;;;;;;;3.58;3.28;;;28.90;56.70;;;;;;5116535;28;20038;-84
2023/08/20 22:53:29;;;;;;;3.60;3.30;;;28.90;56.70;;;;;;5116363;28;20020;-83
2023/08/20 22:55:55;;;;;;;3.95;3.40;;;28.90;56.70;;;;;;5117605;28;20024;-84
2023/08/20 22:58:21;;;;;;;3.92;3.50;;;28.90;56.80;;;;;;5116876;28;20389;-83
2023/08/20 23:00:47;;;;;;;3.97;3.10;;;28.90;56.70;;;;;;5116881;28;20098;-83
2023/08/20 23:03:13;;;;;;;3.53;3.22;;;28.90;56.70;;;;;;5115604;28;20039;-83
2023/08/20 23:05:39;;;;;;;3.75;3.38;;;28.90;56.70;;;;;;5117247;28;20024;-84
2023/08/20 23:08:06;;;;;;;3.63;3.30;;;28.90;56.70;;;;;;5116518;28;20024;-82
2023/08/20 23:10:32;;;;;;;3.53;3.13;;;28.90;56.70;;;;;;5116141;28;20436;-84
2023/08/20 23:12:58;;;;;;;3.40;3.10;;;28.80;56.60;;;;;;5116577;28;20032;-83
2023/08/20 23:15:23;;;;;;;3.67;3.13;;;28.80;56.50;;;;;;5116531;28;20733;-83
2023/08/20 23:17:50;;;;;;;3.92;3.03;;;28.80;56.30;;;;;;5116838;28;20020;-83
2023/08/20 23:20:16;;;;;;;3.47;2.95;;;28.80;56.10;;;;;;5116242;28;20070;-83
2023/08/20 23:22:42;;;;;;;2.78;2.55;;;28.80;56.00;;;;;;5116218;28;20454;-83
2023/08/20 23:25:08;;;;;;;3.75;2.72;;;28.80;55.90;;;;;;5116420;28;20102;-83
2023/08/20 23:27:34;;;;;;;3.92;2.95;;;28.80;55.80;;;;;;5116155;28;20024;-83
2023/08/20 23:30:00;;;;;;;2.90;2.70;;;28.80;55.70;;;;;;5118483;27;20393;-82
2023/08/20 23:32:26;;;;;;;3.15;2.85;;;28.80;55.70;;;;;;5110105;28;20031;-82
2023/08/20 23:34:52;;;;;;;3.13;2.83;;;28.80;55.50;;;;;;5116808;27;20030;-82
2023/08/20 23:37:17;;;;;;;3.28;2.78;;;28.80;55.50;;;;;;5115644;28;20466;-82
2023/08/20 23:39:43;;;;;;;3.30;2.60;;;28.70;55.30;;;;;;5113821;28;20024;-83
2023/08/20 23:42:09;;;;;;;3.25;2.90;;;28.70;55.30;;;;;;5116083;28;20107;-83
2023/08/20 23:44:34;;;;;;;2.70;2.50;;;28.70;55.20;;;;;;5116088;28;20023;-82
2023/08/20 23:47:00;;;;;;;4.20;2.78;;;28.70;55.20;;;;;;5115696;28;20059;-82
2023/08/20 23:49:26;;;;;;;3.28;2.90;;;28.70;55.20;;;;;;5111571;28;20039;-83
2023/08/20 23:51:51;;;;;;;3.95;3.08;;;28.60;55.10;;;;;;5116273;28;20032;-82
2023/08/20 23:54:17;;;;;;;3.47;2.80;;;28.60;55.10;;;;;;5115287;28;20023;-83
2023/08/20 23:56:43;;;;;;;2.63;2.42;;;28.60;55.10;;;;;;5116321;28;20020;-83
2023/08/20 23:59:08;;;;;;;2.95;2.65;;;28.60;55.10;;;;;;5116041;28;20027;-82
